sensor_id;sensor_type;location;lat;lon;timestamp;pressure;altitude;pressure_sealevel;temperature;humidity
54262;BME280;40174;52.364;6.452;2023-05-22T00:02:03;101294.44;;;19.03;100.00
54262;BME280;40174;52.364;6.452;2023-05-22T00:04:29;101285.44;;;19.04;100.00
54262;BME280;40174;52.364;6.452;2023-05-22T00:06:56;101295.28;;;19.03;100.00
54262;BME280;40174;52.364;6.452;2023-05-22T00:09:24;101293.78;;;19.01;100.00
54262;BME280;40174;52.364;6.452;2023-05-22T00:11:51;101286.75;;;19.00;100.00
54262;BME280;40174;52.364;6.452;2023-05-22T00:14:18;101282.22;;;19.00;100.00
54262;BME280;40174;52.364;6.452;2023-05-22T00:16:46;101285.25;;;18.97;100.00
54262;BME280;40174;52.364;6.452;2023-05-22T00:19:13;101288.94;;;18.96;100.00
54262;BME280;40174;52.364;6.452;2023-05-22T00:21:40;101283.09;;;18.93;100.00
54262;BME280;40174;52.364;6.452;2023-05-22T00:24:07;101273.69;;;18.88;100.00
54262;BME280;40174;52.364;6.452;2023-05-22T00:26:34;101278.88;;;18.90;100.00
54262;BME280;40174;52.364;6.452;2023-05-22T00:29:01;101279.06;;;18.88;100.00
54262;BME280;40174;52.364;6.452;2023-05-22T00:31:30;101271.84;;;18.81;100.00
54262;BME280;40174;52.364;6.452;2023-05-22T00:33:58;101271.84;;;18.81;100.00
54262;BME280;40174;52.364;6.452;2023-05-22T00:36:25;101261.59;;;18.76;100.00
54262;BME280;40174;52.364;6.452;2023-05-22T00:38:51;101263.78;;;18.73;100.00
54262;BME280;40174;52.364;6.452;2023-05-22T00:41:18;101260.25;;;18.72;100.00
54262;BME280;40174;52.364;6.452;2023-05-22T00:43:45;101257.25;;;18.67;100.00
54262;BME280;40174;52.364;6.452;2023-05-22T00:46:12;101248.22;;;18.68;100.00
54262;BME280;40174;52.364;6.452;2023-05-22T00:48:39;101260.56;;;18.61;100.00
54262;BME280;40174;52.364;6.452;2023-05-22T00:51:07;101252.22;;;18.56;100.00
54262;BME280;40174;52.364;6.452;2023-05-22T00:53:34;101249.88;;;18.53;100.00
54262;BME280;40174;52.364;6.452;2023-05-22T00:56:02;101247.50;;;18.49;100.00
54262;BME280;40174;52.364;6.452;2023-05-22T00:58:29;101258.88;;;18.52;100.00
54262;BME280;40174;52.364;6.452;2023-05-22T01:00:55;101256.03;;;18.45;100.00
54262;BME280;40174;52.364;6.452;2023-05-22T01:03:22;101261.72;;;18.42;100.00
54262;BME280;40174;52.364;6.452;2023-05-22T01:05:51;101270.59;;;18.42;100.00
54262;BME280;40174;52.364;6.452;2023-05-22T01:08:20;101272.94;;;18.45;100.00
54262;BME280;40174;52.364;6.452;2023-05-22T01:10:47;101267.09;;;18.50;100.00
54262;BME280;40174;52.364;6.452;2023-05-22T01:13:23;101260.56;;;18.44;100.00
54262;BME280;40174;52.364;6.452;2023-05-22T01:16:00;101246.19;;;18.45;100.00
54262;BME280;40174;52.364;6.452;2023-05-22T01:18:38;101239.00;;;18.46;100.00
54262;BME280;40174;52.364;6.452;2023-05-22T01:21:12;101229.94;;;18.47;100.00
54262;BME280;40174;52.364;6.452;2023-05-22T01:24:07;101229.28;;;18.45;100.00
54262;BME280;40174;52.364;6.452;2023-05-22T01:26:55;101232.97;;;18.44;100.00
54262;BME280;40174;52.364;6.452;2023-05-22T01:29:40;101220.56;;;18.43;100.00
54262;BME280;40174;52.364;6.452;2023-05-22T01:32:12;101216.56;;;18.39;100.00
54262;BME280;40174;52.364;6.452;2023-05-22T01:34:42;101218.22;;;18.40;100.00
54262;BME280;40174;52.364;6.452;2023-05-22T01:37:10;101219.06;;;18.40;100.00
54262;BME280;40174;52.364;6.452;2023-05-22T01:39:39;101226.59;;;18.37;100.00
54262;BME280;40174;52.364;6.452;2023-05-22T01:42:07;101217.22;;;18.33;100.00
54262;BME280;40174;52.364;6.452;2023-05-22T01:44:34;101220.06;;;18.31;100.00
54262;BME280;40174;52.364;6.452;2023-05-22T01:47:00;101218.56;;;18.28;100.00
54262;BME280;40174;52.364;6.452;2023-05-22T01:49:32;101211.34;;;18.29;100.00
54262;BME280;40174;52.364;6.452;2023-05-22T01:52:04;101216.88;;;18.27;100.00
54262;BME280;40174;52.364;6.452;2023-05-22T01:54:39;101215.88;;;18.28;100.00
54262;BME280;40174;52.364;6.452;2023-05-22T01:57:15;101200.66;;;18.29;100.00
54262;BME280;40174;52.364;6.452;2023-05-22T01:59:48;101212.84;;;18.32;100.00
54262;BME280;40174;52.364;6.452;2023-05-22T02:02:20;101204.84;;;18.32;100.00
54262;BME280;40174;52.364;6.452;2023-05-22T02:04:58;101195.97;;;18.31;100.00
54262;BME280;40174;52.364;6.452;2023-05-22T02:07:29;101196.16;;;18.30;100.00
54262;BME280;40174;52.364;6.452;2023-05-22T02:09:59;101205.00;;;18.30;100.00
54262;BME280;40174;52.364;6.452;2023-05-22T02:12:28;101205.84;;;18.31;100.00
54262;BME280;40174;52.364;6.452;2023-05-22T02:14:56;101200.50;;;18.31;100.00
54262;BME280;40174;52.364;6.452;2023-05-22T02:17:23;101199.47;;;18.32;100.00
54262;BME280;40174;52.364;6.452;2023-05-22T02:19:51;101198.50;;;18.33;100.00
54262;BME280;40174;52.364;6.452;2023-05-22T02:22:19;101195.81;;;18.33;100.00
54262;BME280;40174;52.364;6.452;2023-05-22T02:24:46;101190.47;;;18.33;100.00
54262;BME280;40174;52.364;6.452;2023-05-22T02:27:14;101188.97;;;18.30;100.00
54262;BME280;40174;52.364;6.452;2023-05-22T02:29:42;101184.28;;;18.32;100.00
54262;BME280;40174;52.364;6.452;2023-05-22T02:32:08;101188.28;;;18.28;100.00
54262;BME280;40174;52.364;6.452;2023-05-22T02:34:35;101184.78;;;18.27;100.00
54262;BME280;40174;52.364;6.452;2023-05-22T02:37:04;101195.97;;;18.23;100.00
54262;BME280;40174;52.364;6.452;2023-05-22T02:39:31;101193.31;;;18.23;100.00
54262;BME280;40174;52.364;6.452;2023-05-22T02:41:57;101186.09;;;18.23;100.00
54262;BME280;40174;52.364;6.452;2023-05-22T02:44:24;101195.97;;;18.23;100.00
54262;BME280;40174;52.364;6.452;2023-05-22T02:46:51;101195.97;;;18.23;100.00
54262;BME280;40174;52.364;6.452;2023-05-22T02:49:17;101192.44;;;18.22;100.00
54262;BME280;40174;52.364;6.452;2023-05-22T02:51:44;101192.28;;;18.24;100.00
54262;BME280;40174;52.364;6.452;2023-05-22T02:54:13;101186.25;;;18.22;100.00
54262;BME280;40174;52.364;6.452;2023-05-22T02:56:41;101192.63;;;18.21;100.00
54262;BME280;40174;52.364;6.452;2023-05-22T02:59:09;101192.63;;;18.21;100.00
54262;BME280;40174;52.364;6.452;2023-05-22T03:01:36;101189.28;;;18.19;100.00
54262;BME280;40174;52.364;6.452;2023-05-22T03:04:04;101197.47;;;18.17;100.00
54262;BME280;40174;52.364;6.452;2023-05-22T03:06:31;101193.44;;;18.13;100.00
54262;BME280;40174;52.364;6.452;2023-05-22T03:08:59;101196.28;;;18.12;100.00
54262;BME280;40174;52.364;6.452;2023-05-22T03:11:29;101189.25;;;18.11;100.00
54262;BME280;40174;52.364;6.452;2023-05-22T03:13:56;101192.25;;;18.07;100.00
54262;BME280;40174;52.364;6.452;2023-05-22T03:16:23;101183.56;;;18.05;100.00
54262;BME280;40174;52.364;6.452;2023-05-22T03:18:50;101182.22;;;18.01;100.00
54262;BME280;40174;52.364;6.452;2023-05-22T03:21:18;101188.22;;;17.95;100.00
54262;BME280;40174;52.364;6.452;2023-05-22T03:23:45;101186.69;;;17.93;100.00
54262;BME280;40174;52.364;6.452;2023-05-22T03:26:12;101183.50;;;17.89;100.00
54262;BME280;40174;52.364;6.452;2023-05-22T03:28:40;101186.03;;;17.91;100.00
54262;BME280;40174;52.364;6.452;2023-05-22T03:31:07;101187.19;;;17.88;100.00
54262;BME280;40174;52.364;6.452;2023-05-22T03:33:46;101182.00;;;17.86;100.00
54262;BME280;40174;52.364;6.452;2023-05-22T03:36:12;101178.81;;;17.83;100.00
54262;BME280;40174;52.364;6.452;2023-05-22T03:38:40;101177.44;;;17.79;100.00
54262;BME280;40174;52.364;6.452;2023-05-22T03:41:07;101169.91;;;17.74;100.00
54262;BME280;40174;52.364;6.452;2023-05-22T03:43:33;101172.22;;;17.69;100.00
54262;BME280;40174;52.364;6.452;2023-05-22T03:46:01;101167.38;;;17.64;100.00
54262;BME280;40174;52.364;6.452;2023-05-22T03:48:28;101164.69;;;17.64;100.00
54262;BME280;40174;52.364;6.452;2023-05-22T03:50:55;101167.63;;;17.53;100.00
54262;BME280;40174;52.364;6.452;2023-05-22T03:53:22;101160.44;;;17.45;100.00
54262;BME280;40174;52.364;6.452;2023-05-22T03:55:48;101158.25;;;17.41;100.00
54262;BME280;40174;52.364;6.452;2023-05-22T03:58:15;101153.22;;;17.38;100.00
54262;BME280;40174;52.364;6.452;2023-05-22T04:00:43;101156.06;;;17.36;100.00
54262;BME280;40174;52.364;6.452;2023-05-22T04:03:11;101151.69;;;17.35;100.00
54262;BME280;40174;52.364;6.452;2023-05-22T04:05:38;101146.00;;;17.30;100.00
54262;BME280;40174;52.364;6.452;2023-05-22T04:08:05;101155.31;;;17.26;100.00
54262;BME280;40174;52.364;6.452;2023-05-22T04:10:32;101145.28;;;17.20;100.00
54262;BME280;40174;52.364;6.452;2023-05-22T04:13:00;101149.09;;;17.17;100.00
54262;BME280;40174;52.364;6.452;2023-05-22T04:15:26;101138.72;;;17.14;100.00
54262;BME280;40174;52.364;6.452;2023-05-22T04:17:53;101142.56;;;17.12;100.00
54262;BME280;40174;52.364;6.452;2023-05-22T04:20:21;101146.25;;;17.11;100.00
54262;BME280;40174;52.364;6.452;2023-05-22T04:22:49;101140.38;;;17.07;100.00
54262;BME280;40174;52.364;6.452;2023-05-22T04:25:15;101142.03;;;17.08;100.00
54262;BME280;40174;52.364;6.452;2023-05-22T04:27:43;101147.38;;;17.08;100.00
54262;BME280;40174;52.364;6.452;2023-05-22T04:30:10;101146.53;;;17.08;100.00
54262;BME280;40174;52.364;6.452;2023-05-22T04:32:37;101143.88;;;17.08;100.00
54262;BME280;40174;52.364;6.452;2023-05-22T04:35:05;101152.41;;;17.11;100.00
54262;BME280;40174;52.364;6.452;2023-05-22T04:37:33;101155.59;;;17.15;100.00
54262;BME280;40174;52.364;6.452;2023-05-22T04:40:00;101157.09;;;17.17;100.00
54262;BME280;40174;52.364;6.452;2023-05-22T04:42:36;101162.16;;;17.20;100.00
54262;BME280;40174;52.364;6.452;2023-05-22T04:45:03;101158.47;;;17.21;100.00
54262;BME280;40174;52.364;6.452;2023-05-22T04:47:30;101154.81;;;17.22;100.00
54262;BME280;40174;52.364;6.452;2023-05-22T04:49:57;101156.47;;;17.23;100.00
54262;BME280;40174;52.364;6.452;2023-05-22T04:52:24;101157.97;;;17.26;100.00
54262;BME280;40174;52.364;6.452;2023-05-22T04:54:52;101164.88;;;17.29;100.00
54262;BME280;40174;52.364;6.452;2023-05-22T04:57:20;101166.88;;;17.27;100.00
54262;BME280;40174;52.364;6.452;2023-05-22T04:59:47;101162.34;;;17.27;100.00
54262;BME280;40174;52.364;6.452;2023-05-22T05:02:15;101163.19;;;17.28;100.00
54262;BME280;40174;52.364;6.452;2023-05-22T05:04:41;101162.03;;;17.30;100.00
54262;BME280;40174;52.364;6.452;2023-05-22T05:07:08;101164.22;;;17.35;100.00
54262;BME280;40174;52.364;6.452;2023-05-22T05:09:36;101172.06;;;17.36;100.00
54262;BME280;40174;52.364;6.452;2023-05-22T05:12:04;101167.41;;;17.38;100.00
54262;BME280;40174;52.364;6.452;2023-05-22T05:14:31;101165.72;;;17.37;100.00
54262;BME280;40174;52.364;6.452;2023-05-22T05:16:58;101167.25;;;17.40;100.00
54262;BME280;40174;52.364;6.452;2023-05-22T05:19:24;101169.75;;;17.41;100.00
54262;BME280;40174;52.364;6.452;2023-05-22T05:21:52;101169.47;;;17.44;100.00
54262;BME280;40174;52.364;6.452;2023-05-22T05:24:20;101169.13;;;17.48;100.00
54262;BME280;40174;52.364;6.452;2023-05-22T05:26:48;101177.34;;;17.54;100.00
54262;BME280;40174;52.364;6.452;2023-05-22T05:29:18;101182.34;;;17.57;100.00
54262;BME280;40174;52.364;6.452;2023-05-22T05:32:08;101178.38;;;17.61;100.00
54262;BME280;40174;52.364;6.452;2023-05-22T05:34:52;101185.06;;;17.65;100.00
54262;BME280;40174;52.364;6.452;2023-05-22T05:37:23;101172.22;;;17.69;100.00
54262;BME280;40174;52.364;6.452;2023-05-22T05:39:51;101175.41;;;17.73;100.00
54262;BME280;40174;52.364;6.452;2023-05-22T05:42:19;101182.25;;;17.75;100.00
54262;BME280;40174;52.364;6.452;2023-05-22T05:44:48;101173.25;;;17.76;100.00
54262;BME280;40174;52.364;6.452;2023-05-22T05:47:16;101176.59;;;17.78;100.00
54262;BME280;40174;52.364;6.452;2023-05-22T05:49:42;101173.63;;;17.81;100.00
54262;BME280;40174;52.364;6.452;2023-05-22T05:52:09;101174.16;;;17.85;100.00
54262;BME280;40174;52.364;6.452;2023-05-22T05:54:36;101175.66;;;17.88;100.00
54262;BME280;40174;52.364;6.452;2023-05-22T05:57:10;101178.16;;;17.89;100.00
54262;BME280;40174;52.364;6.452;2023-05-22T05:59:37;101178.81;;;17.91;100.00
54262;BME280;40174;52.364;6.452;2023-05-22T06:02:20;101184.69;;;17.95;100.00
54262;BME280;40174;52.364;6.452;2023-05-22T06:04:50;101179.00;;;17.98;100.00
54262;BME280;40174;52.364;6.452;2023-05-22T06:07:18;101182.72;;;17.97;100.00
54262;BME280;40174;52.364;6.452;2023-05-22T06:09:48;101178.72;;;18.01;100.00
54262;BME280;40174;52.364;6.452;2023-05-22T06:12:33;101184.41;;;18.06;100.00
54262;BME280;40174;52.364;6.452;2023-05-22T06:15:00;101184.25;;;18.07;100.00
54262;BME280;40174;52.364;6.452;2023-05-22T06:17:28;101192.44;;;18.14;100.00
54262;BME280;40174;52.364;6.452;2023-05-22T06:19:54;101190.94;;;18.20;100.00
54262;BME280;40174;52.364;6.452;2023-05-22T06:22:21;101196.97;;;18.22;100.00
54262;BME280;40174;52.364;6.452;2023-05-22T06:24:50;101197.47;;;18.25;100.00
54262;BME280;40174;52.364;6.452;2023-05-22T06:27:19;101201.50;;;18.30;100.00
54262;BME280;40174;52.364;6.452;2023-05-22T06:29:46;101205.50;;;18.34;100.00
54262;BME280;40174;52.364;6.452;2023-05-22T06:32:13;101205.00;;;18.38;100.00
54262;BME280;40174;52.364;6.452;2023-05-22T06:34:44;101207.19;;;18.43;100.00
54262;BME280;40174;52.364;6.452;2023-05-22T06:37:12;101225.13;;;18.51;100.00
54262;BME280;40174;52.364;6.452;2023-05-22T06:39:41;101216.75;;;18.54;100.00
54262;BME280;40174;52.364;6.452;2023-05-22T06:42:31;101223.44;;;18.58;100.00
54262;BME280;40174;52.364;6.452;2023-05-22T06:45:16;101223.63;;;18.64;100.00
54262;BME280;40174;52.364;6.452;2023-05-22T06:48:02;101230.47;;;18.67;100.00
54262;BME280;40174;52.364;6.452;2023-05-22T06:50:34;101236.00;;;18.74;100.00
54262;BME280;40174;52.364;6.452;2023-05-22T06:53:01;101228.63;;;18.76;100.00
54262;BME280;40174;52.364;6.452;2023-05-22T06:55:28;101233.53;;;18.80;100.00
54262;BME280;40174;52.364;6.452;2023-05-22T06:58:10;101237.19;;;18.87;100.00
54262;BME280;40174;52.364;6.452;2023-05-22T07:00:38;101237.38;;;18.94;100.00
54262;BME280;40174;52.364;6.452;2023-05-22T07:03:18;101236.19;;;18.97;100.00
54262;BME280;40174;52.364;6.452;2023-05-22T07:06:19;101231.84;;;19.04;100.00
54262;BME280;40174;52.364;6.452;2023-05-22T07:08:46;101234.84;;;19.09;100.00
54262;BME280;40174;52.364;6.452;2023-05-22T07:11:12;101238.03;;;19.04;100.00
54262;BME280;40174;52.364;6.452;2023-05-22T07:13:39;101242.88;;;19.09;100.00
54262;BME280;40174;52.364;6.452;2023-05-22T07:16:06;101243.56;;;19.11;100.00
54262;BME280;40174;52.364;6.452;2023-05-22T07:18:34;101242.88;;;19.09;100.00
54262;BME280;40174;52.364;6.452;2023-05-22T07:21:00;101242.53;;;19.12;100.00
54262;BME280;40174;52.364;6.452;2023-05-22T07:23:29;101254.59;;;19.16;100.00
54262;BME280;40174;52.364;6.452;2023-05-22T07:25:55;101258.78;;;19.19;100.00
54262;BME280;40174;52.364;6.452;2023-05-22T07:28:29;101256.25;;;19.25;100.00
54262;BME280;40174;52.364;6.452;2023-05-22T07:31:04;101255.06;;;19.28;100.00
54262;BME280;40174;52.364;6.452;2023-05-22T07:33:31;101260.13;;;19.31;100.00
54262;BME280;40174;52.364;6.452;2023-05-22T07:35:58;101262.94;;;19.29;100.00
54262;BME280;40174;52.364;6.452;2023-05-22T07:38:25;101261.94;;;19.39;100.00
54262;BME280;40174;52.364;6.452;2023-05-22T07:40:59;101264.59;;;19.47;100.00
54262;BME280;40174;52.364;6.452;2023-05-22T07:43:30;101261.41;;;19.51;100.00
54262;BME280;40174;52.364;6.452;2023-05-22T07:45:58;101268.06;;;19.64;100.00
54262;BME280;40174;52.364;6.452;2023-05-22T07:48:29;101260.69;;;19.74;100.00
54262;BME280;40174;52.364;6.452;2023-05-22T07:50:56;101271.94;;;19.78;100.00
54262;BME280;40174;52.364;6.452;2023-05-22T07:53:22;101273.22;;;19.82;100.00
54262;BME280;40174;52.364;6.452;2023-05-22T07:55:52;101266.50;;;19.94;100.00
54262;BME280;40174;52.364;6.452;2023-05-22T07:58:20;101268.25;;;20.10;100.00
54262;BME280;40174;52.364;6.452;2023-05-22T08:00:48;101268.56;;;20.15;100.00
54262;BME280;40174;52.364;6.452;2023-05-22T08:03:15;101262.63;;;20.28;100.00
54262;BME280;40174;52.364;6.452;2023-05-22T08:05:41;101258.72;;;20.39;100.00
54262;BME280;40174;52.364;6.452;2023-05-22T08:08:08;101263.03;;;20.48;100.00
54262;BME280;40174;52.364;6.452;2023-05-22T08:10:36;101272.19;;;20.62;100.00
54262;BME280;40174;52.364;6.452;2023-05-22T08:13:02;101268.38;;;20.79;100.00
54262;BME280;40174;52.364;6.452;2023-05-22T08:15:32;101269.59;;;20.91;100.00
54262;BME280;40174;52.364;6.452;2023-05-22T08:17:59;101264.91;;;20.93;100.00
54262;BME280;40174;52.364;6.452;2023-05-22T08:20:26;101266.91;;;20.91;100.00
54262;BME280;40174;52.364;6.452;2023-05-22T08:22:52;101264.22;;;20.91;100.00
54262;BME280;40174;52.364;6.452;2023-05-22T08:25:19;101259.84;;;20.99;100.00
54262;BME280;40174;52.364;6.452;2023-05-22T08:27:46;101250.59;;;21.16;100.00
54262;BME280;40174;52.364;6.452;2023-05-22T08:30:13;101259.78;;;21.22;100.00
54262;BME280;40174;52.364;6.452;2023-05-22T08:32:41;101255.66;;;21.49;100.00
54262;BME280;40174;52.364;6.452;2023-05-22T08:35:08;101267.72;;;21.68;100.00
54262;BME280;40174;52.364;6.452;2023-05-22T08:37:35;101262.03;;;21.92;100.00
54262;BME280;40174;52.364;6.452;2023-05-22T08:40:02;101263.03;;;22.06;100.00
54262;BME280;40174;52.364;6.452;2023-05-22T08:42:29;101260.44;;;22.28;100.00
54262;BME280;40174;52.364;6.452;2023-05-22T08:44:56;101259.22;;;22.30;100.00
54262;BME280;40174;52.364;6.452;2023-05-22T08:47:25;101269.19;;;22.51;100.00
54262;BME280;40174;52.364;6.452;2023-05-22T08:49:55;101260.53;;;22.56;100.00
54262;BME280;40174;52.364;6.452;2023-05-22T08:52:32;101260.84;;;22.68;100.00
54262;BME280;40174;52.364;6.452;2023-05-22T08:55:02;101259.56;;;22.85;100.00
54262;BME280;40174;52.364;6.452;2023-05-22T08:57:30;101259.88;;;22.97;100.00
54262;BME280;40174;52.364;6.452;2023-05-22T08:59:57;101255.41;;;23.04;100.00
54262;BME280;40174;52.364;6.452;2023-05-22T09:02:24;101262.31;;;23.13;100.00
54262;BME280;40174;52.364;6.452;2023-05-22T09:04:51;101263.50;;;23.32;100.00
54262;BME280;40174;52.364;6.452;2023-05-22T09:07:19;101259.91;;;23.53;100.00
54262;BME280;40174;52.364;6.452;2023-05-22T09:09:46;101255.38;;;23.60;100.00
54262;BME280;40174;52.364;6.452;2023-05-22T09:12:13;101254.56;;;23.66;100.00
54262;BME280;40174;52.364;6.452;2023-05-22T09:14:41;101258.53;;;23.71;100.00
54262;BME280;40174;52.364;6.452;2023-05-22T09:17:09;101267.34;;;23.79;100.00
54262;BME280;40174;52.364;6.452;2023-05-22T09:19:36;101268.63;;;23.83;100.00
54262;BME280;40174;52.364;6.452;2023-05-22T09:22:03;101261.16;;;23.92;100.00
54262;BME280;40174;52.364;6.452;2023-05-22T09:24:36;101262.09;;;24.13;99.36
54262;BME280;40174;52.364;6.452;2023-05-22T09:27:05;101258.25;;;23.94;97.64
54262;BME280;40174;52.364;6.452;2023-05-22T09:29:32;101258.19;;;24.22;96.21
54262;BME280;40174;52.364;6.452;2023-05-22T09:32:12;101253.41;;;24.24;93.73
54262;BME280;40174;52.364;6.452;2023-05-22T09:34:39;101246.22;;;24.58;94.25
54262;BME280;40174;52.364;6.452;2023-05-22T09:37:07;101253.75;;;24.82;92.34
54262;BME280;40174;52.364;6.452;2023-05-22T09:39:43;101247.09;;;24.85;91.64
54262;BME280;40174;52.364;6.452;2023-05-22T09:42:10;101236.47;;;25.17;92.30
54262;BME280;40174;52.364;6.452;2023-05-22T09:44:39;101241.44;;;25.33;88.55
54262;BME280;40174;52.364;6.452;2023-05-22T09:47:07;101242.47;;;25.45;89.93
54262;BME280;40174;52.364;6.452;2023-05-22T09:49:35;101249.69;;;25.65;87.16
54262;BME280;40174;52.364;6.452;2023-05-22T09:52:03;101247.63;;;25.60;85.17
54262;BME280;40174;52.364;6.452;2023-05-22T09:54:33;101247.59;;;25.67;84.80
54262;BME280;40174;52.364;6.452;2023-05-22T09:57:04;101244.50;;;25.70;83.27
54262;BME280;40174;52.364;6.452;2023-05-22T09:59:32;101242.94;;;26.01;83.58
54262;BME280;40174;52.364;6.452;2023-05-22T10:02:04;101242.50;;;26.04;80.88
54262;BME280;40174;52.364;6.452;2023-05-22T10:04:32;101244.44;;;26.35;84.35
54262;BME280;40174;52.364;6.452;2023-05-22T10:07:01;101241.78;;;26.22;76.90
54262;BME280;40174;52.364;6.452;2023-05-22T10:09:30;101250.38;;;26.50;78.12
54262;BME280;40174;52.364;6.452;2023-05-22T10:12:04;101247.69;;;26.50;74.25
54262;BME280;40174;52.364;6.452;2023-05-22T10:14:33;101249.19;;;26.40;74.77
54262;BME280;40174;52.364;6.452;2023-05-22T10:17:00;101248.81;;;26.68;73.42
54262;BME280;40174;52.364;6.452;2023-05-22T10:19:29;101243.91;;;26.83;73.44
54262;BME280;40174;52.364;6.452;2023-05-22T10:21:59;101243.84;;;26.90;72.06
54262;BME280;40174;52.364;6.452;2023-05-22T10:24:26;101239.59;;;27.01;72.60
54262;BME280;40174;52.364;6.452;2023-05-22T10:26:54;101241.13;;;26.90;70.87
54262;BME280;40174;52.364;6.452;2023-05-22T10:29:26;101240.44;;;27.45;76.31
54262;BME280;40174;52.364;6.452;2023-05-22T10:32:00;101235.84;;;27.64;70.66
54262;BME280;40174;52.364;6.452;2023-05-22T10:34:46;101241.31;;;27.75;69.93
54262;BME280;40174;52.364;6.452;2023-05-22T10:37:24;101238.47;;;27.70;68.26
54262;BME280;40174;52.364;6.452;2023-05-22T10:40:00;101239.16;;;27.84;69.12
54262;BME280;40174;52.364;6.452;2023-05-22T10:42:29;101233.97;;;27.83;70.37
54262;BME280;40174;52.364;6.452;2023-05-22T10:44:59;101227.06;;;27.80;63.18
54262;BME280;40174;52.364;6.452;2023-05-22T10:47:26;101221.16;;;27.90;63.81
54262;BME280;40174;52.364;6.452;2023-05-22T10:50:02;101230.69;;;28.11;63.76
54262;BME280;40174;52.364;6.452;2023-05-22T10:52:29;101226.13;;;28.53;64.30
54262;BME280;40174;52.364;6.452;2023-05-22T10:54:58;101228.16;;;28.28;62.07
54262;BME280;40174;52.364;6.452;2023-05-22T10:57:26;101228.19;;;28.39;59.84
54262;BME280;40174;52.364;6.452;2023-05-22T11:00:07;101229.56;;;28.30;59.35
54262;BME280;40174;52.364;6.452;2023-05-22T11:02:38;101228.41;;;28.38;59.04
54262;BME280;40174;52.364;6.452;2023-05-22T11:05:33;101235.78;;;28.49;60.93
54262;BME280;40174;52.364;6.452;2023-05-22T11:08:35;101234.03;;;28.55;56.82
54262;BME280;40174;52.364;6.452;2023-05-22T11:11:12;101230.34;;;28.49;57.41
54262;BME280;40174;52.364;6.452;2023-05-22T11:13:39;101228.19;;;28.81;57.77
54262;BME280;40174;52.364;6.452;2023-05-22T11:16:08;101228.03;;;28.65;57.07
54262;BME280;40174;52.364;6.452;2023-05-22T11:18:36;101227.09;;;28.83;60.36
54262;BME280;40174;52.364;6.452;2023-05-22T11:21:03;101235.25;;;28.94;55.96
54262;BME280;40174;52.364;6.452;2023-05-22T11:23:33;101224.56;;;29.11;61.32
54262;BME280;40174;52.364;6.452;2023-05-22T11:26:17;101220.03;;;29.40;56.44
54262;BME280;40174;52.364;6.452;2023-05-22T11:28:48;101228.28;;;29.46;55.57
54262;BME280;40174;52.364;6.452;2023-05-22T11:31:17;101223.34;;;29.42;55.61
54262;BME280;40174;52.364;6.452;2023-05-22T11:33:45;101223.28;;;29.78;59.61
54262;BME280;40174;52.364;6.452;2023-05-22T11:36:12;101219.50;;;30.08;55.09
54262;BME280;40174;52.364;6.452;2023-05-22T11:38:39;101219.28;;;30.09;51.17
54262;BME280;40174;52.364;6.452;2023-05-22T11:41:07;101214.22;;;30.18;51.02
54262;BME280;40174;52.364;6.452;2023-05-22T11:43:34;101212.91;;;29.39;50.17
54262;BME280;40174;52.364;6.452;2023-05-22T11:46:04;101213.19;;;29.26;53.34
54262;BME280;40174;52.364;6.452;2023-05-22T11:48:33;101204.44;;;29.24;53.93
54262;BME280;40174;52.364;6.452;2023-05-22T11:51:01;101205.72;;;29.10;55.46
54262;BME280;40174;52.364;6.452;2023-05-22T11:53:28;101205.94;;;29.32;54.13
54262;BME280;40174;52.364;6.452;2023-05-22T11:56:00;101198.94;;;29.48;53.67
54262;BME280;40174;52.364;6.452;2023-05-22T11:58:32;101201.91;;;29.98;54.98
54262;BME280;40174;52.364;6.452;2023-05-22T12:01:03;101200.78;;;29.82;51.00
54262;BME280;40174;52.364;6.452;2023-05-22T12:03:37;101196.81;;;29.90;53.12
54262;BME280;40174;52.364;6.452;2023-05-22T12:06:04;101191.13;;;29.92;51.52
54262;BME280;40174;52.364;6.452;2023-05-22T12:08:56;101199.47;;;30.14;52.59
54262;BME280;40174;52.364;6.452;2023-05-22T12:11:48;101192.53;;;29.94;54.10
54262;BME280;40174;52.364;6.452;2023-05-22T12:14:43;101193.13;;;29.56;53.18
54262;BME280;40174;52.364;6.452;2023-05-22T12:17:35;101195.22;;;29.66;55.05
54262;BME280;40174;52.364;6.452;2023-05-22T12:20:29;101193.53;;;29.36;53.56
54262;BME280;40174;52.364;6.452;2023-05-22T12:23:23;101190.81;;;29.24;53.85
54262;BME280;40174;52.364;6.452;2023-05-22T12:25:59;101195.09;;;29.20;54.27
54262;BME280;40174;52.364;6.452;2023-05-22T12:28:30;101190.44;;;28.85;55.39
54262;BME280;40174;52.364;6.452;2023-05-22T12:30:57;101183.00;;;28.92;55.18
54262;BME280;40174;52.364;6.452;2023-05-22T12:33:27;101194.47;;;28.83;55.43
54262;BME280;40174;52.364;6.452;2023-05-22T12:35:55;101184.75;;;28.98;57.06
54262;BME280;40174;52.364;6.452;2023-05-22T12:38:24;101191.91;;;29.63;58.07
54262;BME280;40174;52.364;6.452;2023-05-22T12:40:52;101186.56;;;29.16;55.79
54262;BME280;40174;52.364;6.452;2023-05-22T12:43:20;101180.16;;;28.99;54.59
54262;BME280;40174;52.364;6.452;2023-05-22T12:45:46;101187.50;;;28.98;54.83
54262;BME280;40174;52.364;6.452;2023-05-22T12:48:13;101189.13;;;29.35;54.39
54262;BME280;40174;52.364;6.452;2023-05-22T12:50:41;101185.28;;;29.59;54.99
54262;BME280;40174;52.364;6.452;2023-05-22T12:53:09;101185.63;;;29.75;54.83
54262;BME280;40174;52.364;6.452;2023-05-22T12:55:37;101176.25;;;29.82;54.19
54262;BME280;40174;52.364;6.452;2023-05-22T12:58:03;101177.59;;;29.97;54.59